Time;durP1;ratioP1;P1;durP2;ratioP2;P2;SDS_P1;SDS_P2;PMS_P1;PMS_P2;Temp;Humidity;BMP_temperature;BMP_pressure;BME280_temperature;BME280_humidity;BME280_pressure;Samples;Min_cycle;Max_cycle;Signal;HPM_P1;HPM_P2
2021/11/23 00:01:48;;;;;;;9.50;6.37;;;;;;;;;;5058381;28;20217;-63
2021/11/23 00:04:13;;;;;;;6.43;5.80;;;;;;;;;;5057490;28;20299;-63
2021/11/23 00:06:38;;;;;;;7.10;5.40;;;;;;;;;;5059042;28;20227;-63
2021/11/23 00:09:05;;;;;;;7.80;5.57;;;;;;;;;;5058113;28;20235;-63
2021/11/23 00:11:31;;;;;;;6.20;5.50;;;;;;;;;;5058181;28;20240;-63
2021/11/23 00:13:56;;;;;;;10.37;6.50;;;;;;;;;;5057929;28;20474;-63
2021/11/23 00:16:21;;;;;;;8.90;6.00;;;;;;;;;;5058508;28;20233;-63
2021/11/23 00:18:47;;;;;;;8.37;6.70;;;;;;;;;;5057754;28;20221;-63
2021/11/23 00:21:14;;;;;;;7.43;6.60;;;;;;;;;;5057643;28;20256;-63
2021/11/23 00:23:39;;;;;;;9.10;6.03;;;;;;;;;;5058118;28;20690;-63
2021/11/23 00:26:05;;;;;;;9.47;6.47;;;;;;;;;;5057830;28;20531;-63
2021/11/23 00:28:31;;;;;;;9.90;6.50;;;;;;;;;;5057480;28;20216;-63
2021/11/23 00:30:56;;;;;;;8.60;6.03;;;;;;;;;;5057514;28;20228;-63
2021/11/23 00:33:22;;;;;;;7.57;6.23;;;;;;;;;;5057613;28;20296;-62
2021/11/23 00:35:47;;;;;;;9.07;6.23;;;;;;;;;;5057111;28;20214;-64
2021/11/23 00:38:13;;;;;;;7.67;6.60;;;;;;;;;;5056743;28;20224;-63
2021/11/23 00:40:38;;;;;;;8.50;6.20;;;;;;;;;;5057972;28;20213;-63
2021/11/23 00:43:04;;;;;;;10.67;6.70;;;;;;;;;;5055787;28;20220;-63
2021/11/23 00:45:31;;;;;;;6.20;5.60;;;;;;;;;;5057346;28;20228;-63
2021/11/23 00:47:56;;;;;;;6.40;5.80;;;;;;;;;;5056204;28;20455;-63
2021/11/23 00:50:22;;;;;;;9.43;6.23;;;;;;;;;;5056711;28;20466;-63
2021/11/23 00:52:48;;;;;;;6.33;5.60;;;;;;;;;;5057123;28;20217;-63
2021/11/23 00:55:13;;;;;;;9.07;6.67;;;;;;;;;;5056522;28;20306;-62
2021/11/23 00:57:39;;;;;;;9.30;5.17;;;;;;;;;;5042893;28;20541;-63
2021/11/23 01:00:06;;;;;;;9.40;7.47;;;;;;;;;;5051487;28;20710;-63
2021/11/23 01:02:32;;;;;;;10.40;6.53;;;;;;;;;;5056598;28;20311;-62
2021/11/23 01:04:57;;;;;;;10.10;6.57;;;;;;;;;;5035819;28;20489;-61
2021/11/23 01:07:23;;;;;;;8.37;7.17;;;;;;;;;;5030571;28;20644;-62
2021/11/23 01:09:48;;;;;;;7.20;6.50;;;;;;;;;;5050091;28;20229;-61
2021/11/23 01:12:14;;;;;;;7.17;6.47;;;;;;;;;;5048264;28;20232;-62
2021/11/23 01:14:39;;;;;;;9.20;7.47;;;;;;;;;;5043863;28;20303;-62
2021/11/23 01:17:05;;;;;;;7.03;6.30;;;;;;;;;;5044637;28;20657;-62
2021/11/23 01:19:30;;;;;;;6.83;6.13;;;;;;;;;;5050581;28;20225;-62
2021/11/23 01:21:55;;;;;;;8.30;7.03;;;;;;;;;;5038603;28;20308;-63
2021/11/23 01:24:21;;;;;;;8.93;5.97;;;;;;;;;;5049684;28;20225;-62
2021/11/23 01:26:47;;;;;;;11.77;7.50;;;;;;;;;;5048896;28;20540;-62
2021/11/23 01:29:12;;;;;;;10.27;7.90;;;;;;;;;;5043320;28;20228;-62
2021/11/23 01:31:38;;;;;;;9.20;7.10;;;;;;;;;;5053124;28;20236;-62
2021/11/23 01:34:04;;;;;;;8.83;7.13;;;;;;;;;;5043225;28;20231;-62
2021/11/23 01:36:30;;;;;;;8.20;7.40;;;;;;;;;;5044988;28;20317;-62
2021/11/23 01:38:55;;;;;;;8.70;6.93;;;;;;;;;;5050907;28;20503;-62
2021/11/23 01:41:22;;;;;;;7.50;6.73;;;;;;;;;;5044082;28;22955;-63
2021/11/23 01:43:48;;;;;;;9.93;7.43;;;;;;;;;;5050708;28;20301;-62
2021/11/23 01:46:13;;;;;;;8.93;7.13;;;;;;;;;;5048740;28;20849;-62
2021/11/23 01:48:39;;;;;;;11.93;7.70;;;;;;;;;;5043438;28;20671;-61
2021/11/23 01:51:05;;;;;;;9.00;7.57;;;;;;;;;;5044937;28;20701;-62
2021/11/23 01:53:31;;;;;;;13.00;7.30;;;;;;;;;;5050662;28;20464;-62
2021/11/23 01:55:56;;;;;;;9.17;6.33;;;;;;;;;;5051595;28;20361;-62
2021/11/23 01:58:21;;;;;;;8.07;6.70;;;;;;;;;;5045859;28;20676;-63
2021/11/23 02:00:47;;;;;;;7.57;6.77;;;;;;;;;;5050296;28;20220;-62
2021/11/23 02:03:13;;;;;;;7.73;6.63;;;;;;;;;;5052729;28;20226;-62
2021/11/23 02:05:39;;;;;;;9.20;6.93;;;;;;;;;;5045665;28;20554;-62
2021/11/23 02:08:04;;;;;;;8.40;6.73;;;;;;;;;;5052890;28;20470;-62
2021/11/23 02:10:30;;;;;;;7.67;6.90;;;;;;;;;;5045197;28;20691;-62
2021/11/23 02:12:56;;;;;;;10.87;7.10;;;;;;;;;;5047049;28;20236;-62
2021/11/23 02:15:22;;;;;;;8.67;6.90;;;;;;;;;;5053135;28;20662;-62
2021/11/23 02:17:47;;;;;;;7.40;6.43;;;;;;;;;;5052037;28;20465;-63
2021/11/23 02:20:16;;;;;;;7.90;6.60;;;;;;;;;;5045197;28;20249;-62
2021/11/23 02:22:41;;;;;;;7.20;6.33;;;;;;;;;;5048761;28;20222;-62
2021/11/23 02:25:08;;;;;;;7.80;6.90;;;;;;;;;;5052671;28;20464;-62
2021/11/23 02:27:33;;;;;;;12.20;7.50;;;;;;;;;;5051414;28;20331;-62
2021/11/23 02:29:59;;;;;;;8.63;7.27;;;;;;;;;;5046126;28;20471;-62
2021/11/23 02:32:24;;;;;;;8.80;7.17;;;;;;;;;;5048755;28;20222;-62
2021/11/23 02:34:49;;;;;;;9.33;7.13;;;;;;;;;;5053705;28;20220;-61
2021/11/23 02:37:15;;;;;;;12.23;8.00;;;;;;;;;;5049908;28;20734;-62
2021/11/23 02:39:40;;;;;;;8.23;6.47;;;;;;;;;;5045002;28;20308;-62
2021/11/23 02:42:06;;;;;;;7.90;6.17;;;;;;;;;;5049676;28;20248;-61
2021/11/23 02:44:40;;;;;;;10.00;6.53;;;;;;;;;;5053124;28;20300;-62
2021/11/23 02:47:06;;;;;;;7.13;6.43;;;;;;;;;;5050662;28;20254;-63
2021/11/23 02:49:31;;;;;;;9.70;6.40;;;;;;;;;;5044617;28;20462;-61
2021/11/23 02:51:58;;;;;;;7.20;6.00;;;;;;;;;;5048432;28;20222;-62
2021/11/23 02:54:24;;;;;;;11.00;6.60;;;;;;;;;;5052166;28;20232;-62
2021/11/23 02:56:49;;;;;;;9.27;6.50;;;;;;;;;;5050021;28;20523;-62
2021/11/23 02:59:14;;;;;;;11.20;7.20;;;;;;;;;;5045211;28;20246;-62
2021/11/23 03:01:40;;;;;;;8.70;6.47;;;;;;;;;;5049144;28;20669;-62
2021/11/23 03:04:05;;;;;;;7.00;5.63;;;;;;;;;;5046496;28;20537;-62
2021/11/23 03:06:30;;;;;;;8.10;5.87;;;;;;;;;;5039158;28;20222;-62
2021/11/23 03:08:56;;;;;;;15.90;6.33;;;;;;;;;;5051244;28;20234;-62
2021/11/23 03:11:23;;;;;;;8.57;5.77;;;;;;;;;;5050126;28;20301;-63
2021/11/23 03:13:49;;;;;;;8.87;6.07;;;;;;;;;;5044368;28;20226;-62
2021/11/23 03:16:15;;;;;;;9.47;7.00;;;;;;;;;;5044294;28;20948;-62
2021/11/23 03:18:41;;;;;;;9.10;6.80;;;;;;;;;;5052288;28;20469;-62
2021/11/23 03:21:06;;;;;;;11.13;6.10;;;;;;;;;;5052376;28;20643;-62
2021/11/23 03:23:32;;;;;;;9.10;7.83;;;;;;;;;;5045229;28;20517;-62
2021/11/23 03:25:57;;;;;;;10.23;7.40;;;;;;;;;;5045512;28;20225;-63
2021/11/23 03:28:23;;;;;;;10.20;6.90;;;;;;;;;;5051618;28;20457;-62
2021/11/23 03:30:49;;;;;;;9.17;7.57;;;;;;;;;;5051223;28;20213;-62
2021/11/23 03:33:14;;;;;;;10.77;7.33;;;;;;;;;;5043935;28;20533;-62
2021/11/23 03:35:42;;;;;;;12.20;6.00;;;;;;;;;;5046743;28;20221;-62
2021/11/23 03:38:09;;;;;;;8.33;6.30;;;;;;;;;;5051827;28;20579;-61
2021/11/23 03:40:37;;;;;;;10.40;7.43;;;;;;;;;;5051285;28;20846;-62
2021/11/23 03:43:04;;;;;;;13.23;7.30;;;;;;;;;;5044033;28;20456;-62
2021/11/23 03:45:30;;;;;;;12.23;8.43;;;;;;;;;;5046492;28;20488;-62
2021/11/23 03:47:56;;;;;;;10.90;8.23;;;;;;;;;;5053250;28;20452;-61
2021/11/23 03:50:22;;;;;;;10.93;8.97;;;;;;;;;;5047061;28;21018;-61
2021/11/23 03:52:48;;;;;;;10.77;8.60;;;;;;;;;;5044975;28;20536;-61
2021/11/23 03:55:17;;;;;;;11.20;8.20;;;;;;;;;;5048442;28;20515;-62
2021/11/23 03:57:44;;;;;;;11.97;9.20;;;;;;;;;;5051452;28;20209;-62
2021/11/23 04:00:11;;;;;;;16.80;8.87;;;;;;;;;;5048157;28;20468;-62
2021/11/23 04:02:36;;;;;;;12.57;8.70;;;;;;;;;;5043434;28;20459;-62
2021/11/23 04:05:02;;;;;;;12.93;9.40;;;;;;;;;;5041661;28;20460;-62
2021/11/23 04:07:27;;;;;;;14.00;10.30;;;;;;;;;;5044918;28;20215;-62
2021/11/23 04:09:52;;;;;;;10.13;8.53;;;;;;;;;;5044866;28;20310;-61
2021/11/23 04:12:18;;;;;;;10.83;8.43;;;;;;;;;;5028396;28;20222;-62
2021/11/23 04:14:44;;;;;;;12.63;9.70;;;;;;;;;;5052134;28;20225;-62
2021/11/23 04:17:11;;;;;;;16.60;10.17;;;;;;;;;;5044374;28;20225;-62
2021/11/23 04:19:36;;;;;;;11.33;9.40;;;;;;;;;;5045008;28;20510;-62
2021/11/23 04:22:03;;;;;;;15.40;9.00;;;;;;;;;;5051059;28;20953;-62
2021/11/23 04:24:28;;;;;;;12.80;9.50;;;;;;;;;;5051384;28;20221;-63
2021/11/23 04:26:54;;;;;;;11.57;9.80;;;;;;;;;;5045082;28;21006;-63
2021/11/23 04:29:20;;;;;;;12.57;11.07;;;;;;;;;;5043343;28;20272;-62
2021/11/23 04:31:45;;;;;;;13.43;8.83;;;;;;;;;;5051035;28;20223;-62
2021/11/23 04:34:10;;;;;;;16.40;10.20;;;;;;;;;;5050861;28;20217;-62
2021/11/23 04:36:36;;;;;;;11.77;9.40;;;;;;;;;;5030738;28;20262;-62
2021/11/23 04:39:03;;;;;;;15.70;10.90;;;;;;;;;;5044375;28;20649;-62
2021/11/23 04:41:28;;;;;;;16.70;11.40;;;;;;;;;;5050119;28;20230;-62
2021/11/23 04:43:54;;;;;;;13.63;10.20;;;;;;;;;;5051110;28;20464;-62
2021/11/23 04:46:19;;;;;;;16.03;11.37;;;;;;;;;;5042855;28;20524;-63
2021/11/23 04:48:46;;;;;;;15.73;10.20;;;;;;;;;;5044622;28;20213;-62
2021/11/23 04:51:11;;;;;;;14.03;12.50;;;;;;;;;;5051201;28;20233;-62
2021/11/23 04:53:36;;;;;;;18.57;11.40;;;;;;;;;;5050327;28;20456;-63
2021/11/23 04:56:02;;;;;;;15.77;12.03;;;;;;;;;;5044416;28;20296;-62
2021/11/23 04:58:27;;;;;;;18.27;13.40;;;;;;;;;;5044321;28;20297;-62
2021/11/23 05:00:53;;;;;;;18.90;12.60;;;;;;;;;;5051103;28;20515;-62
2021/11/23 05:03:18;;;;;;;18.93;11.80;;;;;;;;;;5049159;28;20220;-61
2021/11/23 05:05:43;;;;;;;16.20;12.17;;;;;;;;;;5040205;28;20235;-62
2021/11/23 05:08:09;;;;;;;15.97;12.37;;;;;;;;;;5055403;28;20232;-62
2021/11/23 05:10:34;;;;;;;16.93;12.47;;;;;;;;;;5048604;28;20232;-62
2021/11/23 05:12:59;;;;;;;18.47;12.03;;;;;;;;;;5044075;28;20209;-62
2021/11/23 05:15:25;;;;;;;17.83;12.77;;;;;;;;;;5057133;28;20553;-61
2021/11/23 05:17:50;;;;;;;18.93;13.23;;;;;;;;;;5044551;28;20250;-62
2021/11/23 05:20:16;;;;;;;15.23;11.40;;;;;;;;;;5045818;28;20236;-61
2021/11/23 05:22:41;;;;;;;16.87;13.00;;;;;;;;;;5052843;28;20217;-61
2021/11/23 05:25:07;;;;;;;20.23;14.30;;;;;;;;;;5047526;28;20267;-62
2021/11/23 05:27:33;;;;;;;22.10;13.47;;;;;;;;;;5051262;28;20221;-62
2021/11/23 05:29:59;;;;;;;19.70;14.20;;;;;;;;;;5052642;28;20467;-62
2021/11/23 05:32:25;;;;;;;17.30;14.57;;;;;;;;;;5047746;28;20656;-62
2021/11/23 05:34:51;;;;;;;18.83;13.97;;;;;;;;;;5051407;28;20458;-62
2021/11/23 05:37:16;;;;;;;21.43;15.03;;;;;;;;;;5054177;28;20708;-62
2021/11/23 05:39:41;;;;;;;20.40;15.30;;;;;;;;;;5054176;28;20220;-62
2021/11/23 05:42:07;;;;;;;19.93;15.67;;;;;;;;;;5047603;28;20221;-63
2021/11/23 05:44:32;;;;;;;21.30;15.33;;;;;;;;;;5050614;28;20232;-61
2021/11/23 05:46:58;;;;;;;17.87;14.53;;;;;;;;;;5054043;28;20676;-62
2021/11/23 05:49:23;;;;;;;27.67;15.67;;;;;;;;;;5049519;28;20241;-62
2021/11/23 05:51:48;;;;;;;24.23;15.13;;;;;;;;;;5047349;28;20221;-62
2021/11/23 05:54:14;;;;;;;29.03;16.30;;;;;;;;;;5051480;28;20646;-62
2021/11/23 05:56:39;;;;;;;25.70;15.70;;;;;;;;;;5053802;28;20209;-61
2021/11/23 05:59:05;;;;;;;19.70;14.90;;;;;;;;;;5050000;28;20221;-62
2021/11/23 06:01:30;;;;;;;23.63;14.70;;;;;;;;;;5047021;28;20312;-62
2021/11/23 06:03:56;;;;;;;24.23;14.87;;;;;;;;;;5047673;28;20590;-62
2021/11/23 06:06:21;;;;;;;18.70;15.17;;;;;;;;;;5039237;28;20217;-62
2021/11/23 06:08:47;;;;;;;32.10;15.50;;;;;;;;;;5050146;28;20264;-62
2021/11/23 06:11:12;;;;;;;21.77;16.17;;;;;;;;;;5053218;28;20360;-62
2021/11/23 06:13:37;;;;;;;23.17;16.03;;;;;;;;;;5050522;28;20221;-63
2021/11/23 06:16:05;;;;;;;19.30;15.13;;;;;;;;;;5046404;28;20214;-62
2021/11/23 06:18:30;;;;;;;20.23;15.90;;;;;;;;;;5048759;28;20234;-62
2021/11/23 06:20:56;;;;;;;21.37;16.70;;;;;;;;;;5052031;28;20489;-62
2021/11/23 06:23:22;;;;;;;24.43;16.10;;;;;;;;;;5049967;28;20215;-62
2021/11/23 06:25:51;;;;;;;24.23;15.13;;;;;;;;;;5046641;28;20243;-62
2021/11/23 06:28:18;;;;;;;27.50;16.13;;;;;;;;;;5049479;28;20534;-62
2021/11/23 06:30:44;;;;;;;26.20;17.53;;;;;;;;;;5052573;28;20852;-62
2021/11/23 06:33:10;;;;;;;18.37;14.67;;;;;;;;;;5050073;28;20470;-63
2021/11/23 06:35:36;;;;;;;27.63;17.83;;;;;;;;;;5044760;28;20647;-62
2021/11/23 06:38:03;;;;;;;26.37;16.60;;;;;;;;;;5051367;28;20647;-62
2021/11/23 06:40:28;;;;;;;34.20;19.00;;;;;;;;;;5054024;28;20482;-63
2021/11/23 06:42:53;;;;;;;33.70;19.00;;;;;;;;;;5050744;28;20448;-62
2021/11/23 06:45:19;;;;;;;23.07;16.40;;;;;;;;;;5052572;28;20224;-62
2021/11/23 06:47:46;;;;;;;25.13;17.13;;;;;;;;;;5047641;28;20228;-63
2021/11/23 06:50:12;;;;;;;22.70;16.93;;;;;;;;;;5045861;28;20222;-62
2021/11/23 06:52:37;;;;;;;27.03;16.87;;;;;;;;;;5050832;28;20497;-63
2021/11/23 06:55:02;;;;;;;22.50;16.47;;;;;;;;;;5051353;28;20517;-62
2021/11/23 06:57:28;;;;;;;23.07;16.33;;;;;;;;;;5045897;28;20304;-62
2021/11/23 06:59:53;;;;;;;26.37;18.03;;;;;;;;;;5045519;28;20543;-62
2021/11/23 07:02:18;;;;;;;29.97;16.90;;;;;;;;;;5051544;28;20716;-62
2021/11/23 07:04:44;;;;;;;24.83;17.70;;;;;;;;;;5048382;28;20300;-62
2021/11/23 07:07:09;;;;;;;25.83;17.67;;;;;;;;;;5046035;28;20246;-63
2021/11/23 07:09:36;;;;;;;30.70;16.43;;;;;;;;;;5045171;28;20683;-62
2021/11/23 07:12:02;;;;;;;24.50;19.03;;;;;;;;;;5050275;28;20225;-62
2021/11/23 07:14:27;;;;;;;27.33;18.77;;;;;;;;;;5045267;28;20482;-62
2021/11/23 07:16:53;;;;;;;33.17;20.73;;;;;;;;;;5047825;28;20461;-62
2021/11/23 07:19:18;;;;;;;33.67;19.97;;;;;;;;;;5052092;28;20293;-62
2021/11/23 07:21:44;;;;;;;25.13;17.70;;;;;;;;;;5050058;28;20221;-62
2021/11/23 07:24:09;;;;;;;29.90;18.37;;;;;;;;;;5045718;28;20213;-62
2021/11/23 07:26:37;;;;;;;26.33;18.03;;;;;;;;;;5047260;28;20297;-62
2021/11/23 07:29:03;;;;;;;26.63;17.40;;;;;;;;;;5051972;28;20237;-62
2021/11/23 07:31:28;;;;;;;30.13;20.77;;;;;;;;;;5048052;28;20459;-62
2021/11/23 07:33:54;;;;;;;24.33;18.23;;;;;;;;;;5045573;28;20546;-62
2021/11/23 07:36:21;;;;;;;31.33;19.43;;;;;;;;;;5048791;28;20214;-62
2021/11/23 07:38:47;;;;;;;34.93;21.60;;;;;;;;;;5051407;28;20240;-62
2021/11/23 07:41:13;;;;;;;25.13;18.00;;;;;;;;;;5048168;28;20479;-62
2021/11/23 07:43:38;;;;;;;34.63;18.90;;;;;;;;;;5045136;28;20462;-63
2021/11/23 07:46:03;;;;;;;27.83;18.03;;;;;;;;;;5048580;28;20218;-62
2021/11/23 07:48:29;;;;;;;29.60;20.00;;;;;;;;;;5051918;28;20248;-62
2021/11/23 07:50:54;;;;;;;27.83;17.60;;;;;;;;;;5045764;28;20252;-62
2021/11/23 07:53:19;;;;;;;35.37;20.23;;;;;;;;;;5044344;28;20233;-62
2021/11/23 07:55:49;;;;;;;27.33;18.80;;;;;;;;;;5050919;28;20651;-62
2021/11/23 07:58:15;;;;;;;24.40;19.03;;;;;;;;;;5052108;28;20224;-62
2021/11/23 08:00:40;;;;;;;35.70;20.07;;;;;;;;;;5045122;28;20493;-62
2021/11/23 08:03:07;;;;;;;29.33;18.17;;;;;;;;;;5044464;28;20504;-62
2021/11/23 08:05:34;;;;;;;22.60;17.37;;;;;;;;;;5042101;28;20229;-63
2021/11/23 08:08:00;;;;;;;27.60;18.20;;;;;;;;;;5050910;28;20505;-63
2021/11/23 08:10:26;;;;;;;31.17;18.07;;;;;;;;;;5037672;28;20546;-62
2021/11/23 08:12:51;;;;;;;28.37;19.33;;;;;;;;;;5052236;28;21058;-63
2021/11/23 08:15:16;;;;;;;26.50;17.93;;;;;;;;;;5049429;28;20536;-62
2021/11/23 08:17:42;;;;;;;43.30;21.70;;;;;;;;;;5050270;28;20549;-63
2021/11/23 08:20:09;;;;;;;31.33;19.60;;;;;;;;;;5047202;28;20537;-62
2021/11/23 08:22:35;;;;;;;40.63;18.17;;;;;;;;;;5043289;28;20210;-63
2021/11/23 08:25:00;;;;;;;30.47;18.67;;;;;;;;;;5049178;28;20563;-63
2021/11/23 08:27:25;;;;;;;29.20;17.70;;;;;;;;;;5051743;28;20225;-62
2021/11/23 08:29:51;;;;;;;26.50;18.00;;;;;;;;;;5046326;28;20228;-63
2021/11/23 08:32:16;;;;;;;30.87;19.00;;;;;;;;;;5043251;28;20228;-63
2021/11/23 08:34:41;;;;;;;27.97;17.33;;;;;;;;;;5049962;28;20266;-63
2021/11/23 08:37:07;;;;;;;31.30;18.30;;;;;;;;;;5050687;28;20236;-63
2021/11/23 08:39:32;;;;;;;30.37;18.23;;;;;;;;;;5042415;28;20231;-63
2021/11/23 08:41:58;;;;;;;30.57;19.60;;;;;;;;;;5045585;28;20602;-63
2021/11/23 08:44:24;;;;;;;31.20;19.50;;;;;;;;;;5050856;28;20244;-63
2021/11/23 08:46:50;;;;;;;29.67;21.13;;;;;;;;;;5048756;28;20236;-62
2021/11/23 08:49:15;;;;;;;33.93;20.90;;;;;;;;;;5043850;28;20462;-62
2021/11/23 08:51:42;;;;;;;31.03;19.57;;;;;;;;;;5045919;28;20303;-63
2021/11/23 08:54:07;;;;;;;35.00;19.87;;;;;;;;;;5050776;28;20301;-62
2021/11/23 08:56:38;;;;;;;28.47;19.07;;;;;;;;;;5048038;28;20518;-63
2021/11/23 08:59:09;;;;;;;30.47;18.10;;;;;;;;;;5042771;28;20293;-64
2021/11/23 09:01:35;;;;;;;27.90;19.33;;;;;;;;;;5045325;28;20465;-62
2021/11/23 09:04:03;;;;;;;26.13;17.93;;;;;;;;;;5050081;28;20544;-63
2021/11/23 09:06:30;;;;;;;27.13;18.50;;;;;;;;;;5048548;28;20244;-63
2021/11/23 09:08:55;;;;;;;26.80;18.93;;;;;;;;;;5042099;28;20921;-62
2021/11/23 09:11:22;;;;;;;28.00;17.50;;;;;;;;;;5047136;28;20545;-62
2021/11/23 09:13:48;;;;;;;29.83;17.07;;;;;;;;;;5025377;28;20225;-61
2021/11/23 09:16:13;;;;;;;27.43;18.00;;;;;;;;;;5039269;28;20452;-61
2021/11/23 09:18:39;;;;;;;29.47;18.60;;;;;;;;;;5047541;28;20222;-61
2021/11/23 09:21:04;;;;;;;29.77;17.10;;;;;;;;;;5043662;28;20224;-62
2021/11/23 09:23:29;;;;;;;29.93;16.40;;;;;;;;;;5046427;28;20222;-62
2021/11/23 09:25:55;;;;;;;35.20;19.53;;;;;;;;;;5050698;28;20226;-61
2021/11/23 09:28:20;;;;;;;40.90;17.30;;;;;;;;;;5046152;28;20688;-60
2021/11/23 09:30:45;;;;;;;25.60;17.63;;;;;;;;;;5042893;28;20310;-62
2021/11/23 09:33:13;;;;;;;36.33;17.70;;;;;;;;;;5047261;28;20600;-62
2021/11/23 09:35:39;;;;;;;33.27;18.97;;;;;;;;;;5049462;28;20223;-60
2021/11/23 09:38:04;;;;;;;29.83;18.00;;;;;;;;;;5045766;28;20535;-62
2021/11/23 09:40:30;;;;;;;24.03;14.87;;;;;;;;;;5042486;28;20231;-62
2021/11/23 09:42:56;;;;;;;29.73;18.20;;;;;;;;;;5047291;28;20230;-62
2021/11/23 09:45:21;;;;;;;25.90;16.57;;;;;;;;;;5050748;28;20456;-61
2021/11/23 09:47:47;;;;;;;30.93;16.37;;;;;;;;;;5039194;28;20663;-62
2021/11/23 09:50:13;;;;;;;28.07;17.77;;;;;;;;;;5042574;28;20223;-62
2021/11/23 09:52:40;;;;;;;27.50;18.23;;;;;;;;;;5047460;28;20225;-63
2021/11/23 09:55:07;;;;;;;30.57;18.87;;;;;;;;;;5049845;28;20460;-63
2021/11/23 09:57:34;;;;;;;33.03;20.00;;;;;;;;;;5045502;28;20462;-62
2021/11/23 10:00:00;;;;;;;29.97;19.20;;;;;;;;;;5041864;28;20469;-63
2021/11/23 10:02:30;;;;;;;29.63;17.93;;;;;;;;;;5046903;28;20501;-62
2021/11/23 10:05:09;;;;;;;29.87;18.00;;;;;;;;;;5039976;28;20468;-62
2021/11/23 10:07:39;;;;;;;31.77;19.60;;;;;;;;;;5040735;28;20473;-62
2021/11/23 10:10:17;;;;;;;32.23;18.70;;;;;;;;;;5048636;28;20478;-62
2021/11/23 10:13:00;;;;;;;30.97;19.53;;;;;;;;;;5048953;28;20473;-60
2021/11/23 10:15:28;;;;;;;31.53;19.03;;;;;;;;;;5039238;28;20880;-62
2021/11/23 10:17:56;;;;;;;31.30;19.57;;;;;;;;;;5046942;28;20821;-62
2021/11/23 10:20:29;;;;;;;26.50;17.83;;;;;;;;;;5051845;28;20541;-63
2021/11/23 10:22:55;;;;;;;30.27;18.13;;;;;;;;;;5051282;28;20458;-63
2021/11/23 10:25:20;;;;;;;31.40;19.83;;;;;;;;;;5045435;28;20479;-62
2021/11/23 10:27:46;;;;;;;30.33;19.63;;;;;;;;;;5046543;28;20234;-61
2021/11/23 10:30:12;;;;;;;29.97;20.90;;;;;;;;;;5052900;28;20527;-63
2021/11/23 10:32:48;;;;;;;32.03;19.20;;;;;;;;;;5050943;28;20476;-63
2021/11/23 10:35:19;;;;;;;36.00;21.83;;;;;;;;;;5045096;28;20261;-63
2021/11/23 10:37:45;;;;;;;29.97;20.07;;;;;;;;;;5045142;28;20562;-61
2021/11/23 10:40:17;;;;;;;29.10;19.27;;;;;;;;;;5051763;28;20537;-62
2021/11/23 10:42:45;;;;;;;26.23;17.20;;;;;;;;;;5052488;28;20487;-63
2021/11/23 10:45:11;;;;;;;27.20;17.33;;;;;;;;;;5048676;28;20452;-63
2021/11/23 10:47:42;;;;;;;26.90;18.80;;;;;;;;;;5052063;28;20470;-62
2021/11/23 10:50:09;;;;;;;26.10;17.43;;;;;;;;;;5046848;28;20474;-63
2021/11/23 10:52:45;;;;;;;27.73;19.20;;;;;;;;;;5043905;28;20470;-62
2021/11/23 10:55:22;;;;;;;22.60;17.20;;;;;;;;;;5048684;28;20784;-63
2021/11/23 10:57:48;;;;;;;24.90;16.57;;;;;;;;;;5052167;28;20527;-62
2021/11/23 11:00:14;;;;;;;27.37;18.27;;;;;;;;;;5049457;28;20463;-62
2021/11/23 11:02:40;;;;;;;34.83;17.20;;;;;;;;;;5045115;28;20507;-63
2021/11/23 11:05:09;;;;;;;26.13;17.00;;;;;;;;;;5046963;28;20549;-61
2021/11/23 11:07:36;;;;;;;21.57;15.27;;;;;;;;;;5050715;28;20962;-62
2021/11/23 11:10:03;;;;;;;25.17;15.90;;;;;;;;;;5047944;28;20476;-63
2021/11/23 11:12:28;;;;;;;26.60;17.27;;;;;;;;;;5044580;28;20467;-62
2021/11/23 11:14:54;;;;;;;75.70;45.20;;;;;;;;;;5046955;28;20599;-67
2021/11/23 11:17:24;;;;;;;27.23;18.37;;;;;;;;;;5036721;28;20223;-63
2021/11/23 11:19:52;;;;;;;25.90;18.83;;;;;;;;;;5037346;28;20471;-64
2021/11/23 11:22:25;;;;;;;26.00;17.17;;;;;;;;;;5038281;28;20885;-64
2021/11/23 11:25:15;;;;;;;23.90;16.90;;;;;;;;;;5037413;28;20907;-63
2021/11/23 11:27:44;;;;;;;24.23;17.40;;;;;;;;;;5034666;28;20469;-63
2021/11/23 11:30:22;;;;;;;31.60;18.17;;;;;;;;;;5035992;28;20451;-64
2021/11/23 11:32:51;;;;;;;27.60;17.60;;;;;;;;;;5036185;28;20447;-64
2021/11/23 11:35:26;;;;;;;26.60;16.70;;;;;;;;;;5036535;28;20470;-64
2021/11/23 11:38:00;;;;;;;28.63;18.33;;;;;;;;;;5035651;28;20471;-64
2021/11/23 11:40:33;;;;;;;32.23;22.67;;;;;;;;;;5034680;28;20474;-64
2021/11/23 11:43:05;;;;;;;26.10;18.93;;;;;;;;;;5037326;28;20817;-62
2021/11/23 11:45:48;;;;;;;26.50;16.70;;;;;;;;;;5037949;28;20481;-63
2021/11/23 11:48:33;;;;;;;21.30;15.20;;;;;;;;;;5037688;28;20653;-62
2021/11/23 11:51:01;;;;;;;24.90;15.47;;;;;;;;;;5037698;28;20549;-64
2021/11/23 11:53:47;;;;;;;19.57;15.10;;;;;;;;;;5036392;28;20453;-64
2021/11/23 11:56:14;;;;;;;23.60;16.63;;;;;;;;;;5037443;28;20613;-64
2021/11/23 11:58:44;;;;;;;22.60;16.10;;;;;;;;;;5037023;28;20480;-63
2021/11/23 12:01:21;;;;;;;25.63;15.30;;;;;;;;;;5037373;28;20799;-64
2021/11/23 12:04:00;;;;;;;24.30;15.30;;;;;;;;;;5037079;28;20542;-63
2021/11/23 12:06:54;;;;;;;25.97;15.67;;;;;;;;;;5035722;28;20464;-63
2021/11/23 12:09:35;;;;;;;21.90;14.00;;;;;;;;;;5036141;28;21007;-63
2021/11/23 12:12:10;;;;;;;21.23;15.13;;;;;;;;;;5037060;28;20470;-64
2021/11/23 12:14:55;;;;;;;19.33;14.60;;;;;;;;;;5036759;28;20448;-63
2021/11/23 12:17:44;;;;;;;19.47;15.90;;;;;;;;;;5036299;28;20454;-64
2021/11/23 12:20:25;;;;;;;23.23;15.67;;;;;;;;;;5036741;28;20597;-64
2021/11/23 12:22:52;;;;;;;21.43;14.57;;;;;;;;;;5036671;28;20470;-64
2021/11/23 12:25:21;;;;;;;22.20;15.83;;;;;;;;;;5036025;28;20456;-63
2021/11/23 12:27:48;;;;;;;18.50;14.37;;;;;;;;;;5036963;28;20613;-64
2021/11/23 12:30:19;;;;;;;20.33;15.80;;;;;;;;;;5036533;28;20540;-63
2021/11/23 12:32:45;;;;;;;21.83;16.83;;;;;;;;;;5037364;28;20469;-63
2021/11/23 12:35:16;;;;;;;24.23;16.03;;;;;;;;;;5036162;28;20788;-63
2021/11/23 12:37:44;;;;;;;23.00;16.60;;;;;;;;;;5034248;28;20461;-64
2021/11/23 12:40:24;;;;;;;18.50;14.87;;;;;;;;;;5035804;28;20537;-63
2021/11/23 12:42:52;;;;;;;18.03;14.13;;;;;;;;;;5036456;28;20471;-63
2021/11/23 12:45:25;;;;;;;15.80;12.33;;;;;;;;;;5035255;28;20459;-64
2021/11/23 12:47:51;;;;;;;18.37;13.60;;;;;;;;;;5036320;28;20461;-64
2021/11/23 12:50:17;;;;;;;19.83;13.50;;;;;;;;;;5036031;28;20528;-64
2021/11/23 12:52:44;;;;;;;24.57;13.47;;;;;;;;;;5036315;28;20218;-64
2021/11/23 12:55:10;;;;;;;19.83;14.23;;;;;;;;;;5036200;28;20489;-61
2021/11/23 12:57:36;;;;;;;17.33;12.87;;;;;;;;;;5038336;28;20483;-61
2021/11/23 13:00:05;;;;;;;19.93;12.93;;;;;;;;;;5037738;28;20235;-61
2021/11/23 13:02:32;;;;;;;22.40;13.63;;;;;;;;;;5038725;28;20550;-60
2021/11/23 13:05:03;;;;;;;19.80;13.57;;;;;;;;;;5038023;28;20523;-60
2021/11/23 13:07:30;;;;;;;22.67;13.53;;;;;;;;;;5038214;28;20456;-61
2021/11/23 13:10:04;;;;;;;16.83;13.70;;;;;;;;;;5037947;28;20474;-61
2021/11/23 13:12:35;;;;;;;19.87;11.60;;;;;;;;;;5037948;28;20786;-61
2021/11/23 13:15:07;;;;;;;16.53;12.13;;;;;;;;;;5038048;28;20510;-62
2021/11/23 13:17:43;;;;;;;16.93;12.90;;;;;;;;;;5038334;28;20467;-61
2021/11/23 13:20:13;;;;;;;17.07;11.23;;;;;;;;;;5037478;28;20464;-61
2021/11/23 13:22:43;;;;;;;21.03;12.90;;;;;;;;;;5038079;28;20537;-61
2021/11/23 13:25:09;;;;;;;16.80;11.37;;;;;;;;;;5037633;28;20468;-61
2021/11/23 13:27:36;;;;;;;16.33;12.57;;;;;;;;;;5036975;28;20460;-61
2021/11/23 13:30:30;;;;;;;17.10;12.27;;;;;;;;;;5037740;28;20469;-61
2021/11/23 13:32:56;;;;;;;17.67;11.70;;;;;;;;;;5037949;28;20470;-61
2021/11/23 13:35:22;;;;;;;19.37;11.40;;;;;;;;;;5036194;28;20451;-61
2021/11/23 13:37:50;;;;;;;22.80;10.90;;;;;;;;;;5037779;28;20946;-61
2021/11/23 13:40:18;;;;;;;16.40;12.20;;;;;;;;;;5037735;28;20237;-61
2021/11/23 13:42:43;;;;;;;17.77;12.20;;;;;;;;;;5037776;28;20988;-61
2021/11/23 13:45:12;;;;;;;17.87;13.13;;;;;;;;;;5037585;28;20481;-61
2021/11/23 13:47:38;;;;;;;16.47;12.67;;;;;;;;;;5037537;28;20216;-60
2021/11/23 13:50:05;;;;;;;16.07;10.93;;;;;;;;;;5039854;28;20530;-61
2021/11/23 13:52:33;;;;;;;14.27;11.03;;;;;;;;;;5041745;28;20303;-61
2021/11/23 13:55:01;;;;;;;13.20;11.50;;;;;;;;;;5041307;28;20811;-63
2021/11/23 13:57:30;;;;;;;14.03;10.03;;;;;;;;;;5040297;28;20472;-61
2021/11/23 14:00:07;;;;;;;14.20;11.80;;;;;;;;;;5041320;28;20533;-61
2021/11/23 14:02:50;;;;;;;18.40;11.60;;;;;;;;;;5041155;28;20470;-62
2021/11/23 14:05:34;;;;;;;15.43;11.00;;;;;;;;;;5041601;28;20482;-62
2021/11/23 14:07:59;;;;;;;17.80;11.90;;;;;;;;;;5041325;28;20459;-60
2021/11/23 14:10:27;;;;;;;16.77;10.90;;;;;;;;;;5040452;28;20971;-60
2021/11/23 14:13:02;;;;;;;16.90;11.03;;;;;;;;;;5041121;28;20218;-61
2021/11/23 14:15:38;;;;;;;13.73;10.90;;;;;;;;;;5039267;28;20539;-61
2021/11/23 14:18:11;;;;;;;18.80;12.27;;;;;;;;;;5041134;28;20478;-61
2021/11/23 14:23:15;;;;;;;13.73;10.90;;;;;;;;;;5040744;28;20456;-61
2021/11/23 14:25:43;;;;;;;17.00;11.67;;;;;;;;;;5040683;28;20458;-61
2021/11/23 14:28:09;;;;;;;17.23;11.77;;;;;;;;;;5040366;28;20895;-61